CFP2 weather

Fox Point Seaplane Base
Dwight, Ontario, Canada

Public forecast

Using degrees Celsius for public forecast. Weather courtesy of forecast.io.

METAR (pilot weather report)

Closest report is Muskoka Airport, 21.8 nm (40.3 km) SW. Retrieved 2019/07/18 22:00 UTC (41 minutes ago):

CYQA 182200Z AUTO 19010KT 110V200 9SM FEW047 29/19 A2982 RMK SLP098 DENSITY ALT 2800FT

TAF (pilot weather forecast)

Closest forecast is Muskoka Airport, 21.8 nm (40.3 km) SW. Retrieved 2019/07/18 20:00 UTC (3 hours ago):

TAF CYQA 181938Z 1820/1902 17012KT P6SM FEW040 FM182300 17010KT P6SM SCT060 BKN170 BKN250 TEMPO 1823/1901 BKN060 FM190100 19012KT P6SM -SHRA BKN025 OVC060 RMK FCST BASED ON AUTO OBS. NXT FCST WILL BE ISSUED AT 191145Z